Time;durP1;ratioP1;P1;durP2;ratioP2;P2;SDS_P1;SDS_P2;PMS_P1;PMS_P2;Temp;Humidity;BMP_temperature;BMP_pressure;BME280_temperature;BME280_humidity;BME280_pressure;Samples;Min_cycle;Max_cycle;Signal;HPM_P1;HPM_P2
2022/01/01 00:01:23;;;;;;;46.33;23.45;;;24.80;99.90;;;;;;5013093;28;20097;-72
2022/01/01 00:03:51;;;;;;;43.78;21.38;;;24.90;99.90;;;;;;5015205;28;20033;-76
2022/01/01 00:06:18;;;;;;;33.40;22.13;;;25.00;99.90;;;;;;5014487;28;20061;-75
2022/01/01 00:08:45;;;;;;;33.80;18.23;;;25.00;99.90;;;;;;5014971;28;20109;-72
2022/01/01 00:11:12;;;;;;;23.75;15.40;;;25.00;99.90;;;;;;5015298;28;20051;-77
2022/01/01 00:13:40;;;;;;;25.85;15.20;;;25.00;99.90;;;;;;5012396;28;20497;-79
2022/01/01 00:16:09;;;;;;;25.42;14.88;;;25.00;99.90;;;;;;5013444;28;20018;-75
2022/01/01 00:18:39;;;;;;;29.70;16.00;;;25.20;99.90;;;;;;5015049;28;20022;-78
2022/01/01 00:21:07;;;;;;;27.50;13.60;;;25.30;99.90;;;;;;5006503;28;20026;-74
2022/01/01 00:23:34;;;;;;;26.08;13.30;;;25.40;99.90;;;;;;5012070;28;20099;-71
2022/01/01 00:26:01;;;;;;;23.67;13.35;;;25.40;99.90;;;;;;5011483;28;20033;-74
2022/01/01 00:28:27;;;;;;;29.25;13.90;;;25.40;99.90;;;;;;5014837;28;20030;-75
2022/01/01 00:30:54;;;;;;;32.88;18.35;;;25.40;99.90;;;;;;5013896;28;20030;-73
2022/01/01 00:33:21;;;;;;;17.20;12.15;;;25.40;99.90;;;;;;5014783;28;20108;-72
2022/01/01 00:35:47;;;;;;;29.67;13.57;;;25.30;99.90;;;;;;5013752;28;20026;-76
2022/01/01 00:38:14;;;;;;;20.20;12.13;;;25.30;99.90;;;;;;5013638;28;20010;-72
2022/01/01 00:40:40;;;;;;;24.25;13.60;;;25.30;99.90;;;;;;5014942;28;20470;-73
2022/01/01 00:43:07;;;;;;;27.77;12.68;;;25.40;99.90;;;;;;5014880;28;20022;-73
2022/01/01 00:45:34;;;;;;;20.00;12.32;;;25.40;99.90;;;;;;5014640;28;20026;-73
2022/01/01 00:48:00;;;;;;;19.58;12.00;;;25.40;99.90;;;;;;5013117;28;20254;-71
2022/01/01 00:50:27;;;;;;;22.38;12.82;;;25.50;99.90;;;;;;5014678;28;20471;-71
2022/01/01 00:52:54;;;;;;;16.85;11.85;;;25.50;99.90;;;;;;5014434;28;20073;-71
2022/01/01 00:55:21;;;;;;;18.52;11.68;;;25.50;99.90;;;;;;5011036;28;20046;-72
2022/01/01 00:57:48;;;;;;;22.92;12.00;;;25.40;99.90;;;;;;5012742;28;20101;-74
2022/01/01 01:00:14;;;;;;;20.90;11.68;;;25.40;99.90;;;;;;5013341;28;20065;-73
2022/01/01 01:02:41;;;;;;;21.20;12.35;;;25.30;99.90;;;;;;5013393;28;20018;-74
2022/01/01 01:05:08;;;;;;;16.88;11.45;;;25.30;99.90;;;;;;5013984;28;20025;-77
2022/01/01 01:07:35;;;;;;;26.85;11.93;;;25.40;99.90;;;;;;5013439;28;20018;-73
2022/01/01 01:10:03;;;;;;;18.77;12.73;;;25.40;99.90;;;;;;5013918;28;20016;-77
2022/01/01 01:12:39;;;;;;;33.05;13.00;;;25.40;99.90;;;;;;5014178;28;20103;-74
2022/01/01 01:15:09;;;;;;;26.08;13.30;;;25.40;99.90;;;;;;5011683;28;20022;-74
2022/01/01 01:17:36;;;;;;;22.73;13.82;;;25.40;99.90;;;;;;5012619;28;20021;-79
2022/01/01 01:20:04;;;;;;;20.67;12.07;;;25.50;99.90;;;;;;5029260;28;20364;-74
2022/01/01 01:22:31;;;;;;;17.02;12.15;;;25.50;99.90;;;;;;5013710;28;20026;-75
2022/01/01 01:24:59;;;;;;;25.73;12.40;;;25.50;99.90;;;;;;5013963;28;20033;-75
2022/01/01 01:27:28;;;;;;;25.27;12.38;;;25.50;99.90;;;;;;5011649;28;20037;-75
2022/01/01 01:29:57;;;;;;;24.50;12.68;;;25.50;99.90;;;;;;5013908;28;20103;-76
2022/01/01 01:32:24;;;;;;;22.50;12.23;;;25.60;99.90;;;;;;5012136;28;20033;-73
2022/01/01 01:34:51;;;;;;;25.35;14.00;;;25.60;99.90;;;;;;5013135;28;20041;-74
2022/01/01 01:37:18;;;;;;;30.50;14.30;;;25.70;99.90;;;;;;5010053;28;20100;-76
2022/01/01 01:39:45;;;;;;;20.65;10.38;;;25.80;99.90;;;;;;5010839;28;20105;-75
2022/01/01 01:42:11;;;;;;;24.85;13.07;;;25.80;99.90;;;;;;5009545;28;20065;-75
2022/01/01 01:44:45;;;;;;;23.70;13.93;;;25.80;99.90;;;;;;5012142;28;20331;-73
2022/01/01 01:47:16;;;;;;;20.60;12.77;;;25.90;99.90;;;;;;5011656;28;20141;-71
2022/01/01 01:49:46;;;;;;;25.30;14.25;;;26.00;99.90;;;;;;5007230;28;20487;-73
2022/01/01 01:52:15;;;;;;;15.27;9.32;;;26.10;99.90;;;;;;5012806;28;20030;-73
2022/01/01 01:54:43;;;;;;;14.30;7.60;;;26.10;99.90;;;;;;5012225;28;20518;-71
2022/01/01 01:57:09;;;;;;;21.85;9.00;;;26.10;99.90;;;;;;5010783;28;20367;-73
2022/01/01 01:59:36;;;;;;;12.07;7.95;;;26.10;99.90;;;;;;5012849;28;20113;-73
2022/01/01 02:02:03;;;;;;;11.68;8.88;;;26.20;99.90;;;;;;5013264;28;20410;-73
2022/01/01 02:04:30;;;;;;;13.63;7.82;;;26.20;99.90;;;;;;5012905;28;20018;-73
2022/01/01 02:06:57;;;;;;;13.43;8.77;;;26.30;99.90;;;;;;5013069;28;20124;-73
2022/01/01 02:09:24;;;;;;;15.45;9.38;;;26.20;99.90;;;;;;5012322;28;20030;-73
2022/01/01 02:11:52;;;;;;;12.98;8.38;;;26.30;99.90;;;;;;5012807;28;20025;-77
2022/01/01 02:19:28;;;;;;;15.43;6.75;;;26.40;99.90;;;;;;5009410;28;20510;-77
2022/01/01 02:22:00;;;;;;;16.77;8.82;;;26.40;99.90;;;;;;5011779;28;20053;-72
2022/01/01 02:24:27;;;;;;;13.88;6.97;;;26.30;99.90;;;;;;5010996;28;20018;-75
2022/01/01 02:26:53;;;;;;;15.07;9.15;;;26.40;99.90;;;;;;5008512;28;20378;-72
2022/01/01 02:29:21;;;;;;;10.73;6.78;;;26.40;99.90;;;;;;5008554;28;20021;-72
2022/01/01 02:31:50;;;;;;;16.15;5.00;;;26.40;99.90;;;;;;5011838;28;20076;-73
2022/01/01 02:34:18;;;;;;;10.50;4.68;;;26.40;99.90;;;;;;5009152;28;20126;-73
2022/01/01 02:36:45;;;;;;;11.00;5.40;;;26.40;99.90;;;;;;5011620;28;20375;-72
2022/01/01 02:39:15;;;;;;;6.75;4.97;;;26.50;99.90;;;;;;5012227;28;20014;-72
2022/01/01 02:41:43;;;;;;;6.50;4.38;;;26.50;99.90;;;;;;5009584;28;20491;-72
2022/01/01 02:44:10;;;;;;;21.60;8.40;;;26.50;99.90;;;;;;5012469;28;20038;-70
2022/01/01 02:46:37;;;;;;;10.43;6.05;;;26.50;99.90;;;;;;5011609;28;20045;-68
2022/01/01 02:49:04;;;;;;;12.70;6.90;;;26.60;99.90;;;;;;5010577;28;20063;-74
2022/01/01 02:51:34;;;;;;;7.75;4.40;;;26.60;99.90;;;;;;5012757;28;20019;-72
2022/01/01 02:54:01;;;;;;;19.58;4.57;;;26.60;99.90;;;;;;5008258;28;20022;-73
2022/01/01 02:56:29;;;;;;;7.78;4.60;;;26.70;99.90;;;;;;5010948;28;20048;-71
2022/01/01 02:58:55;;;;;;;8.63;4.40;;;26.70;99.90;;;;;;5012058;28;20446;-73
2022/01/01 03:01:22;;;;;;;8.63;4.65;;;26.80;99.90;;;;;;4997463;28;20100;-71
2022/01/01 03:03:49;;;;;;;8.80;4.30;;;26.80;99.90;;;;;;5015571;28;20117;-70
2022/01/01 03:06:19;;;;;;;9.35;4.50;;;26.90;99.90;;;;;;5015650;28;20034;-70
2022/01/01 03:08:48;;;;;;;12.70;4.50;;;26.90;99.90;;;;;;5015151;28;20030;-73
2022/01/01 03:11:15;;;;;;;6.05;4.22;;;26.90;99.90;;;;;;5015366;28;20076;-73
2022/01/01 03:13:42;;;;;;;11.65;6.60;;;26.90;99.90;;;;;;5014882;28;20022;-73
2022/01/01 03:16:09;;;;;;;9.18;4.82;;;26.90;99.90;;;;;;5016323;28;20034;-72
2022/01/01 03:18:36;;;;;;;9.68;5.93;;;26.90;99.90;;;;;;5015760;28;20613;-71
2022/01/01 03:21:03;;;;;;;10.23;5.35;;;26.80;99.90;;;;;;5015504;28;20479;-71
2022/01/01 03:23:29;;;;;;;11.20;6.55;;;26.80;99.90;;;;;;5015876;28;20116;-71
2022/01/01 03:25:56;;;;;;;5.88;4.18;;;26.80;99.90;;;;;;5015546;28;20030;-72
2022/01/01 03:28:23;;;;;;;8.75;4.43;;;26.80;99.90;;;;;;5015923;28;20068;-73
2022/01/01 03:30:49;;;;;;;9.25;4.90;;;26.80;99.90;;;;;;5015050;28;20372;-71
2022/01/01 03:33:16;;;;;;;9.05;4.93;;;26.90;99.90;;;;;;5015058;28;20064;-71
2022/01/01 03:35:43;;;;;;;7.35;4.80;;;26.90;99.90;;;;;;5012233;28;20025;-72
2022/01/01 03:38:09;;;;;;;7.25;4.95;;;26.90;99.90;;;;;;5014160;28;20117;-71
2022/01/01 03:40:36;;;;;;;6.40;4.05;;;27.00;99.90;;;;;;5014935;28;20033;-72
2022/01/01 03:43:03;;;;;;;7.75;4.15;;;27.00;99.90;;;;;;5015536;28;20028;-74
2022/01/01 03:45:29;;;;;;;13.88;8.30;;;27.00;99.90;;;;;;5014753;28;20060;-73
2022/01/01 03:47:56;;;;;;;9.48;4.75;;;27.10;99.90;;;;;;5014703;28;20081;-73
2022/01/01 03:50:23;;;;;;;83.55;45.92;;;27.10;99.90;;;;;;5014276;28;20100;-72
2022/01/01 03:52:50;;;;;;;13.80;6.13;;;27.10;99.90;;;;;;5015430;28;20026;-73
2022/01/01 03:55:16;;;;;;;60.13;39.28;;;27.20;99.90;;;;;;5014768;28;20048;-78
2022/01/01 03:57:43;;;;;;;161.27;109.20;;;27.20;99.90;;;;;;5015693;28;20017;-71
2022/01/01 04:00:11;;;;;;;16.33;9.02;;;27.30;99.90;;;;;;5015640;28;20010;-74
2022/01/01 04:02:38;;;;;;;9.60;5.95;;;27.30;99.90;;;;;;5014827;28;20022;-75
2022/01/01 04:05:05;;;;;;;10.68;5.82;;;27.30;99.90;;;;;;5019425;28;20022;-72
2022/01/01 04:07:32;;;;;;;8.40;5.00;;;27.30;99.90;;;;;;5013154;28;20105;-75
2022/01/01 04:09:59;;;;;;;9.15;5.70;;;27.30;99.90;;;;;;5018105;28;20022;-73
2022/01/01 04:12:26;;;;;;;16.85;5.47;;;27.40;99.90;;;;;;5022734;28;20053;-77
2022/01/01 04:14:54;;;;;;;7.80;4.72;;;27.50;99.90;;;;;;5025303;28;20445;-74
2022/01/01 04:17:20;;;;;;;8.20;4.72;;;27.60;99.90;;;;;;5024696;28;20025;-74
2022/01/01 04:19:47;;;;;;;7.03;3.92;;;27.70;99.90;;;;;;5019435;28;20033;-76
2022/01/01 04:22:16;;;;;;;11.10;6.45;;;27.80;99.90;;;;;;5011238;28;20021;-79
2022/01/01 04:24:43;;;;;;;10.07;6.00;;;27.90;99.90;;;;;;5017197;28;20052;-76
2022/01/01 04:27:10;;;;;;;10.45;5.07;;;27.90;99.90;;;;;;5021365;28;20025;-75
2022/01/01 04:29:38;;;;;;;7.68;4.40;;;28.00;99.90;;;;;;5014803;28;20428;-75
2022/01/01 04:32:05;;;;;;;20.02;14.20;;;28.10;99.90;;;;;;5015193;28;20076;-75
2022/01/01 04:34:32;;;;;;;8.82;4.93;;;28.20;99.90;;;;;;5013498;28;20121;-75
2022/01/01 04:37:06;;;;;;;8.65;6.43;;;28.10;99.90;;;;;;5019107;28;20058;-78
2022/01/01 04:39:32;;;;;;;12.93;4.85;;;28.10;99.90;;;;;;5001719;28;20041;-79
2022/01/01 04:41:59;;;;;;;7.20;4.53;;;28.10;99.90;;;;;;5013428;28;20057;-79
2022/01/01 04:44:26;;;;;;;60.67;37.58;;;28.10;99.90;;;;;;5015801;28;20040;-82
2022/01/01 04:46:52;;;;;;;17.90;8.07;;;28.10;99.90;;;;;;5016977;28;20129;-82
2022/01/01 04:49:19;;;;;;;16.63;5.43;;;28.10;99.90;;;;;;5014345;28;20431;-78
2022/01/01 04:51:46;;;;;;;7.10;4.63;;;28.20;99.90;;;;;;5008938;28;20026;-79
2022/01/01 04:54:16;;;;;;;8.25;4.80;;;28.20;99.90;;;;;;5012975;28;20017;-72
2022/01/01 04:56:48;;;;;;;21.27;5.43;;;28.20;99.90;;;;;;5013196;28;20064;-75
2022/01/01 04:59:16;;;;;;;8.05;5.22;;;28.30;99.90;;;;;;5013338;28;20026;-73
2022/01/01 05:01:44;;;;;;;31.25;6.03;;;28.30;99.90;;;;;;5012734;28;20479;-74
2022/01/01 05:04:11;;;;;;;9.93;5.03;;;28.40;99.90;;;;;;5014538;28;20030;-71
2022/01/01 05:06:41;;;;;;;13.80;5.55;;;28.50;99.90;;;;;;5015811;28;20038;-75
2022/01/01 05:09:09;;;;;;;43.78;28.13;;;28.60;99.90;;;;;;5010016;28;20113;-79
2022/01/01 05:11:36;;;;;;;11.73;6.32;;;28.70;99.90;;;;;;5011265;28;20487;-75
2022/01/01 05:14:02;;;;;;;14.93;6.18;;;28.80;99.90;;;;;;5015883;28;20104;-79
2022/01/01 05:16:29;;;;;;;14.40;5.45;;;28.90;99.90;;;;;;5014627;28;20025;-76
2022/01/01 05:18:56;;;;;;;8.90;5.80;;;28.90;99.90;;;;;;5016324;28;20104;-82
2022/01/01 05:21:23;;;;;;;11.60;5.25;;;29.00;99.90;;;;;;5018445;28;20025;-75
2022/01/01 05:23:49;;;;;;;13.38;7.00;;;29.10;99.90;;;;;;5024815;28;20033;-78
2022/01/01 05:26:16;;;;;;;7.15;5.13;;;29.10;99.90;;;;;;5018251;28;20021;-79
2022/01/01 05:28:44;;;;;;;15.70;6.47;;;29.10;99.90;;;;;;5023726;28;20368;-78
2022/01/01 05:31:11;;;;;;;14.95;6.03;;;29.10;99.90;;;;;;5016255;28;20390;-77
2022/01/01 05:33:38;;;;;;;10.43;6.82;;;29.20;99.90;;;;;;5023588;28;20022;-78
2022/01/01 05:36:05;;;;;;;9.98;6.60;;;29.20;99.90;;;;;;5022360;28;20018;-78
2022/01/01 05:38:32;;;;;;;25.80;7.45;;;29.30;99.90;;;;;;5020234;28;20021;-78
2022/01/01 05:40:58;;;;;;;19.48;4.85;;;29.50;99.90;;;;;;5013601;28;20022;-77
2022/01/01 05:43:25;;;;;;;9.70;4.82;;;29.50;99.90;;;;;;5013882;28;20014;-76
2022/01/01 05:45:52;;;;;;;8.02;5.50;;;29.60;99.90;;;;;;5019252;28;20030;-76
2022/01/01 05:48:18;;;;;;;8.32;5.53;;;29.70;99.90;;;;;;5021267;28;20070;-81
2022/01/01 05:50:45;;;;;;;6.95;5.25;;;29.70;99.90;;;;;;5021385;28;20036;-77
2022/01/01 05:53:12;;;;;;;8.13;5.45;;;29.60;99.90;;;;;;5022485;28;20030;-77
2022/01/01 05:55:38;;;;;;;8.55;5.43;;;29.60;99.90;;;;;;5020684;28;20062;-74
2022/01/01 05:58:05;;;;;;;9.20;5.40;;;29.60;99.90;;;;;;5015182;28;20033;-74
2022/01/01 06:00:33;;;;;;;6.50;4.85;;;29.50;99.90;;;;;;5020252;28;20041;-77
2022/01/01 06:03:00;;;;;;;13.43;5.53;;;29.50;99.90;;;;;;5002899;28;20026;-77
2022/01/01 06:05:28;;;;;;;12.93;4.88;;;29.50;99.90;;;;;;5023998;28;20068;-81
2022/01/01 06:07:56;;;;;;;10.63;4.93;;;29.50;99.90;;;;;;4995576;28;20026;-78
2022/01/01 06:10:24;;;;;;;7.82;5.30;;;29.50;99.90;;;;;;5013207;28;20018;-76
2022/01/01 06:12:51;;;;;;;7.28;5.30;;;29.60;99.90;;;;;;5004613;28;20025;-75
2022/01/01 06:15:19;;;;;;;12.98;5.78;;;29.60;99.90;;;;;;4994255;28;20046;-78
2022/01/01 06:17:45;;;;;;;8.40;5.60;;;29.70;99.90;;;;;;5003477;28;20389;-74
2022/01/01 06:20:13;;;;;;;8.98;5.57;;;29.80;99.90;;;;;;5003872;28;20499;-79
2022/01/01 06:22:39;;;;;;;8.68;4.82;;;29.70;99.90;;;;;;5010449;28;20041;-77
2022/01/01 06:25:07;;;;;;;7.13;5.80;;;29.70;99.90;;;;;;5013453;28;20040;-72
2022/01/01 06:27:34;;;;;;;8.15;4.95;;;29.70;99.90;;;;;;5009906;28;20103;-74
2022/01/01 06:30:00;;;;;;;7.10;4.53;;;29.70;99.90;;;;;;5010240;28;20419;-71
2022/01/01 06:32:31;;;;;;;10.88;7.25;;;29.70;99.90;;;;;;5011044;28;20089;-71
2022/01/01 06:34:59;;;;;;;26.35;16.27;;;29.80;99.90;;;;;;5015744;28;20037;-71
2022/01/01 06:37:26;;;;;;;12.80;7.40;;;29.90;99.90;;;;;;5016433;28;20048;-69
2022/01/01 06:39:52;;;;;;;;;;;30.00;99.90;;;;;;5012815;28;19917;-70
2022/01/01 06:42:19;;;;;;;22.17;9.70;;;30.20;99.90;;;;;;5015220;28;19917;-70
2022/01/01 06:44:46;;;;;;;8.80;6.10;;;30.20;99.90;;;;;;5014734;28;20398;-69
2022/01/01 06:47:12;;;;;;;8.60;6.05;;;30.30;99.90;;;;;;5014988;28;20438;-72
2022/01/01 06:49:39;;;;;;;7.63;5.53;;;30.20;99.90;;;;;;5014674;28;20386;-71
2022/01/01 06:52:06;;;;;;;10.73;6.20;;;30.20;99.90;;;;;;5010151;28;20104;-73
2022/01/01 06:54:33;;;;;;;55.20;49.63;;;30.10;99.90;;;;;;5014609;28;20030;-69
2022/01/01 06:56:59;;;;;;;141.35;99.88;;;30.20;99.90;;;;;;5012342;28;20036;-78
2022/01/01 06:59:26;;;;;;;48.33;33.60;;;30.10;99.90;;;;;;5012708;28;20050;-78
2022/01/01 07:01:53;;;;;;;31.05;20.58;;;30.10;99.90;;;;;;5017379;28;20037;-74
2022/01/01 07:04:19;;;;;;;8.73;7.38;;;30.20;99.90;;;;;;5016994;28;20032;-70
2022/01/01 07:06:46;;;;;;;7.82;5.90;;;30.20;99.90;;;;;;5016331;28;20057;-69
2022/01/01 07:09:14;;;;;;;8.73;5.88;;;30.20;99.90;;;;;;5018414;28;20497;-69
2022/01/01 07:11:42;;;;;;;7.40;5.80;;;30.30;99.90;;;;;;5014970;28;20283;-69
2022/01/01 07:14:11;;;;;;;11.13;6.40;;;30.30;99.90;;;;;;5015167;28;20030;-69
2022/01/01 07:16:38;;;;;;;10.75;6.13;;;30.30;99.90;;;;;;5014773;28;20030;-70
2022/01/01 07:19:05;;;;;;;9.70;7.47;;;30.30;99.90;;;;;;5014344;28;20177;-69
2022/01/01 07:21:31;;;;;;;9.68;7.55;;;30.30;99.90;;;;;;5014150;28;20486;-69
2022/01/01 07:23:59;;;;;;;14.30;7.47;;;30.20;99.90;;;;;;5012676;28;20022;-68
2022/01/01 07:26:26;;;;;;;14.00;7.72;;;30.20;99.90;;;;;;5015621;28;20052;-69
2022/01/01 07:28:52;;;;;;;15.10;6.90;;;30.20;99.90;;;;;;5014391;28;20579;-70
2022/01/01 07:31:19;;;;;;;16.48;7.03;;;30.20;99.90;;;;;;5013751;28;20025;-71
2022/01/01 07:33:46;;;;;;;8.85;6.60;;;30.30;99.90;;;;;;5014969;28;20128;-69
2022/01/01 07:36:13;;;;;;;13.57;7.10;;;30.30;99.90;;;;;;5018196;28;20014;-72
2022/01/01 07:38:40;;;;;;;10.68;7.00;;;30.30;99.90;;;;;;5016009;28;20034;-71
2022/01/01 07:41:06;;;;;;;12.43;6.57;;;30.30;99.90;;;;;;5013996;28;21166;-69
2022/01/01 07:43:33;;;;;;;12.45;6.97;;;30.30;99.90;;;;;;5014393;28;20037;-69
2022/01/01 07:46:00;;;;;;;10.88;7.30;;;30.30;99.90;;;;;;5017644;28;20017;-69
2022/01/01 07:48:26;;;;;;;12.45;6.28;;;30.30;99.90;;;;;;5016964;28;20482;-69
2022/01/01 07:50:53;;;;;;;459.73;343.88;;;30.30;99.90;;;;;;5016195;28;20057;-71
2022/01/01 07:53:20;;;;;;;23.17;14.32;;;30.30;99.90;;;;;;5017232;28;20026;-68
2022/01/01 07:55:46;;;;;;;8.15;6.53;;;30.30;99.90;;;;;;5017488;28;20049;-69
2022/01/01 07:58:13;;;;;;;10.32;7.25;;;30.40;99.90;;;;;;5017748;28;20018;-69
2022/01/01 08:00:40;;;;;;;12.38;8.43;;;30.30;99.90;;;;;;5017647;28;20455;-69
2022/01/01 08:03:06;;;;;;;15.90;7.45;;;30.30;99.90;;;;;;5016168;28;20521;-69
2022/01/01 08:05:33;;;;;;;14.30;6.90;;;30.30;99.90;;;;;;5016339;28;20049;-69
2022/01/01 08:08:00;;;;;;;13.77;9.90;;;30.40;99.90;;;;;;5016871;28;20025;-68
2022/01/01 08:10:27;;;;;;;10.18;7.15;;;30.40;99.90;;;;;;5016619;28;20014;-69
2022/01/01 08:12:53;;;;;;;16.48;11.13;;;30.30;99.90;;;;;;5017074;28;20072;-67
2022/01/01 08:15:23;;;;;;;14.07;9.68;;;30.30;99.90;;;;;;5017172;28;20026;-69
2022/01/01 08:17:49;;;;;;;13.07;8.70;;;30.40;99.90;;;;;;5016267;28;20035;-69
2022/01/01 08:20:16;;;;;;;22.67;16.05;;;30.40;99.90;;;;;;5015523;28;20394;-69
2022/01/01 08:22:43;;;;;;;15.13;10.30;;;30.40;99.90;;;;;;5015742;28;20077;-68
2022/01/01 08:25:10;;;;;;;15.50;10.30;;;30.30;99.90;;;;;;5015870;28;20068;-69
2022/01/01 08:27:37;;;;;;;8.88;7.20;;;30.40;99.90;;;;;;5015520;28;20429;-68
2022/01/01 08:30:04;;;;;;;12.68;8.30;;;30.40;99.90;;;;;;5015577;28;20462;-70
2022/01/01 08:32:31;;;;;;;11.98;7.25;;;30.60;99.90;;;;;;5013460;28;20092;-72
2022/01/01 08:34:57;;;;;;;11.77;7.90;;;30.70;99.90;;;;;;5013859;28;20113;-70
2022/01/01 08:37:24;;;;;;;14.60;9.30;;;30.60;99.90;;;;;;5014314;28;20533;-68
2022/01/01 08:39:51;;;;;;;14.15;7.63;;;30.60;99.90;;;;;;5013045;28;20118;-69
2022/01/01 08:42:18;;;;;;;9.07;6.82;;;30.60;99.90;;;;;;5011580;28;20033;-71
2022/01/01 08:44:44;;;;;;;12.23;7.07;;;30.60;99.90;;;;;;5012089;28;20033;-70
2022/01/01 08:47:11;;;;;;;8.18;5.60;;;30.60;99.90;;;;;;5013625;28;20053;-69
2022/01/01 08:49:38;;;;;;;11.85;6.13;;;30.60;99.90;;;;;;5013637;28;20379;-69
2022/01/01 08:52:05;;;;;;;13.88;6.70;;;30.60;99.90;;;;;;5014235;28;20034;-68
2022/01/01 08:54:32;;;;;;;8.75;5.75;;;30.70;99.90;;;;;;5014532;28;20049;-69
2022/01/01 08:56:59;;;;;;;11.68;6.53;;;30.70;99.90;;;;;;5013465;28;20044;-68
2022/01/01 08:59:25;;;;;;;9.88;6.57;;;30.70;99.90;;;;;;5013826;28;20022;-68
2022/01/01 09:01:52;;;;;;;8.88;6.15;;;30.70;99.90;;;;;;5013315;28;20029;-68
2022/01/01 09:04:19;;;;;;;12.77;6.53;;;30.70;99.90;;;;;;5013384;28;20022;-68
2022/01/01 09:06:45;;;;;;;13.07;6.93;;;30.70;99.90;;;;;;5013342;28;20022;-68
2022/01/01 09:09:12;;;;;;;10.43;6.22;;;30.70;99.90;;;;;;5013727;28;20037;-67
2022/01/01 09:11:39;;;;;;;11.07;5.90;;;30.70;99.90;;;;;;5013565;28;20030;-69
2022/01/01 09:14:05;;;;;;;12.73;5.85;;;30.70;99.90;;;;;;5009161;28;20018;-68
2022/01/01 09:16:32;;;;;;;12.13;6.65;;;30.80;99.90;;;;;;5012059;28;20029;-68
2022/01/01 09:19:00;;;;;;;11.48;6.50;;;30.80;99.80;;;;;;5012946;28;20014;-69
2022/01/01 09:21:27;;;;;;;11.30;7.13;;;30.70;99.90;;;;;;5012962;28;20025;-68
2022/01/01 09:23:55;;;;;;;9.65;7.53;;;30.80;99.90;;;;;;5013256;28;20049;-71
2022/01/01 09:26:22;;;;;;;10.45;7.05;;;30.80;99.90;;;;;;5013212;28;20478;-68
2022/01/01 09:28:48;;;;;;;7.82;6.05;;;30.80;99.00;;;;;;5013350;28;20493;-68
2022/01/01 09:31:15;;;;;;;8.40;6.20;;;30.80;99.60;;;;;;5012892;28;20057;-71
2022/01/01 09:33:42;;;;;;;14.40;9.45;;;30.80;99.90;;;;;;5010632;28;20029;-68
2022/01/01 09:36:14;;;;;;;12.13;9.27;;;30.80;99.90;;;;;;5013948;28;20034;-70
2022/01/01 09:38:41;;;;;;;15.45;11.23;;;30.80;99.90;;;;;;5013306;28;20026;-68
2022/01/01 09:41:09;;;;;;;19.90;10.63;;;30.80;99.90;;;;;;5012694;28;20029;-68
2022/01/01 09:43:36;;;;;;;12.32;9.38;;;30.80;99.90;;;;;;5013137;28;20022;-68
2022/01/01 09:46:03;;;;;;;13.00;9.18;;;30.70;99.90;;;;;;5013010;28;20036;-69
2022/01/01 09:48:31;;;;;;;14.25;9.82;;;30.70;99.90;;;;;;5012941;28;20045;-70
2022/01/01 09:51:02;;;;;;;12.75;8.75;;;30.70;99.90;;;;;;5013141;28;20057;-71
2022/01/01 09:53:30;;;;;;;16.50;9.73;;;30.80;99.90;;;;;;5011440;28;20414;-71
2022/01/01 09:56:00;;;;;;;14.77;9.43;;;30.70;99.90;;;;;;5011823;28;20030;-69
2022/01/01 09:58:28;;;;;;;11.95;9.77;;;30.80;99.90;;;;;;5011613;28;20504;-68
2022/01/01 10:00:55;;;;;;;17.40;9.70;;;30.70;99.90;;;;;;5011418;28;20032;-68
2022/01/01 10:03:37;;;;;;;17.45;10.68;;;30.70;99.90;;;;;;5010278;28;20018;-68
2022/01/01 10:06:08;;;;;;;19.83;13.25;;;30.70;99.90;;;;;;5007925;28;20037;-69
2022/01/01 10:08:37;;;;;;;21.10;13.00;;;30.70;99.40;;;;;;5011203;28;20041;-73
2022/01/01 10:11:04;;;;;;;20.85;11.77;;;30.70;99.90;;;;;;5010839;28;20099;-68
2022/01/01 10:13:37;;;;;;;13.35;8.38;;;30.70;99.90;;;;;;5010986;28;20038;-69
2022/01/01 10:16:07;;;;;;;13.23;8.57;;;30.70;99.90;;;;;;5010503;28;20030;-69
2022/01/01 10:18:37;;;;;;;11.35;6.45;;;30.60;99.90;;;;;;5011765;28;20076;-71
2022/01/01 10:21:08;;;;;;;12.75;6.78;;;30.60;99.90;;;;;;5010302;28;20024;-70
2022/01/01 10:23:36;;;;;;;12.03;6.70;;;30.60;99.90;;;;;;5011282;28;20026;-69
2022/01/01 10:29:10;;;;;;;8.82;5.65;;;30.60;99.90;;;;;;5012284;28;20391;-68
2022/01/01 10:31:39;;;;;;;9.63;5.07;;;30.60;99.90;;;;;;5012403;28;20022;-69
2022/01/01 10:34:10;;;;;;;126.65;90.28;;;30.50;99.90;;;;;;5010779;28;20018;-69
2022/01/01 10:36:37;;;;;;;71.97;44.63;;;30.60;99.90;;;;;;5013283;28;20033;-68
2022/01/01 10:39:08;;;;;;;45.22;31.10;;;30.50;99.90;;;;;;5013451;28;20499;-69
2022/01/01 10:41:42;;;;;;;18.10;12.90;;;30.50;99.90;;;;;;5012792;28;20052;-70
2022/01/01 10:44:09;;;;;;;17.63;10.40;;;30.40;99.90;;;;;;5012418;28;20668;-72
2022/01/01 10:46:38;;;;;;;138.65;95.07;;;30.40;99.90;;;;;;5012737;28;20022;-69
2022/01/01 10:50:03;;;;;;;16.48;9.10;;;30.40;99.90;;;;;;5012419;28;20531;-69
2022/01/01 10:52:27;;;;;;;78.85;60.20;;;30.30;99.90;;;;;;5012835;28;20952;-70
2022/01/01 10:55:01;;;;;;;48.13;33.38;;;30.40;99.90;;;;;;5013085;28;20475;-68
2022/01/01 10:57:37;;;;;;;22.95;14.85;;;30.30;99.90;;;;;;5012080;28;20018;-69
2022/01/01 11:00:11;;;;;;;23.15;13.35;;;30.30;99.90;;;;;;5012295;28;20537;-69
2022/01/01 11:02:41;;;;;;;17.25;10.27;;;30.20;99.90;;;;;;5012554;28;20536;-69
2022/01/01 11:05:08;;;;;;;15.00;8.63;;;30.10;99.90;;;;;;5012965;28;20079;-69
2022/01/01 11:07:35;;;;;;;46.72;23.83;;;30.10;99.90;;;;;;5012166;28;20152;-70
2022/01/01 11:10:03;;;;;;;55.40;32.53;;;30.10;99.90;;;;;;5013237;28;20406;-70
2022/01/01 11:12:30;;;;;;;108.60;59.00;;;30.10;99.90;;;;;;5013349;28;20033;-71
2022/01/01 11:15:00;;;;;;;78.40;51.13;;;30.10;99.90;;;;;;5013165;28;20525;-68
2022/01/01 11:17:27;;;;;;;44.00;26.00;;;30.10;99.90;;;;;;5012392;28;20474;-68
2022/01/01 11:19:54;;;;;;;54.40;33.15;;;30.10;99.90;;;;;;5015214;28;20033;-71
2022/01/01 11:22:21;;;;;;;38.60;21.05;;;30.10;99.90;;;;;;5015925;28;20052;-69
2022/01/01 11:24:48;;;;;;;52.83;23.70;;;30.00;99.90;;;;;;5015405;28;20433;-71
2022/01/01 11:27:15;;;;;;;39.92;23.42;;;30.00;99.90;;;;;;5016473;28;20048;-69
2022/01/01 11:29:50;;;;;;;38.55;25.15;;;30.00;99.90;;;;;;5020675;28;20495;-66
2022/01/01 11:32:22;;;;;;;102.80;73.88;;;30.00;99.90;;;;;;5017773;28;20064;-71
2022/01/01 11:34:53;;;;;;;116.07;75.50;;;29.90;99.90;;;;;;5015671;28;20498;-69
2022/01/01 11:37:22;;;;;;;44.83;29.88;;;30.00;99.90;;;;;;5015891;28;20224;-69
2022/01/01 11:39:56;;;;;;;80.63;55.28;;;29.90;99.90;;;;;;5014862;28;20033;-69
2022/01/01 11:42:23;;;;;;;146.57;109.30;;;29.90;99.90;;;;;;5016018;28;20406;-70
2022/01/01 11:44:53;;;;;;;66.50;49.03;;;29.90;99.90;;;;;;5008103;28;20037;-69
2022/01/01 11:47:24;;;;;;;47.65;30.83;;;29.90;99.90;;;;;;4996344;28;20061;-72
2022/01/01 11:49:52;;;;;;;45.35;30.42;;;29.80;99.90;;;;;;4996360;28;20030;-72
2022/01/01 11:52:38;;;;;;;51.70;36.20;;;29.80;99.90;;;;;;5003395;28;20471;-69
2022/01/01 11:55:12;;;;;;;31.40;16.02;;;29.80;99.90;;;;;;5012538;28;20037;-69
2022/01/01 11:57:53;;;;;;;25.95;15.65;;;29.80;99.90;;;;;;5016066;28;20033;-72
2022/01/01 12:00:22;;;;;;;26.85;15.38;;;29.80;99.90;;;;;;5016219;28;20459;-69
2022/01/01 12:02:49;;;;;;;29.17;17.65;;;29.80;99.90;;;;;;5015514;28;20033;-70
2022/01/01 12:05:22;;;;;;;42.15;25.05;;;29.70;99.90;;;;;;5015216;28;21159;-71
2022/01/01 12:07:54;;;;;;;53.10;27.33;;;29.70;99.90;;;;;;5010418;28;20113;-68
2022/01/01 12:10:26;;;;;;;37.20;22.40;;;29.70;99.90;;;;;;5012604;28;20026;-71
2022/01/01 12:13:06;;;;;;;41.80;21.42;;;29.70;99.90;;;;;;5014022;28;20029;-70
2022/01/01 12:15:51;;;;;;;34.13;20.60;;;29.60;99.90;;;;;;5012799;28;20033;-71
2022/01/01 12:18:23;;;;;;;31.48;19.20;;;29.60;99.90;;;;;;5012871;28;20041;-68
2022/01/01 12:21:03;;;;;;;34.55;20.42;;;29.60;99.90;;;;;;5013632;28;20061;-69
2022/01/01 12:23:39;;;;;;;34.78;19.25;;;29.60;99.90;;;;;;5012581;28;20129;-69
2022/01/01 12:26:10;;;;;;;31.77;18.50;;;29.50;99.90;;;;;;5013460;28;20033;-71
2022/01/01 12:28:38;;;;;;;33.83;17.25;;;29.50;99.90;;;;;;5011446;28;20022;-68
2022/01/01 12:31:13;;;;;;;29.42;15.93;;;29.50;99.90;;;;;;5011884;28;20301;-71
2022/01/01 12:33:43;;;;;;;31.50;17.13;;;29.40;99.90;;;;;;5012856;28;20045;-69
2022/01/01 12:36:22;;;;;;;31.92;15.77;;;29.40;99.90;;;;;;5013742;28;20058;-72
2022/01/01 12:38:50;;;;;;;25.10;14.90;;;29.40;99.90;;;;;;5013293;28;20053;-75
2022/01/01 12:41:21;;;;;;;24.75;14.20;;;29.40;99.90;;;;;;5010759;28;20026;-72
2022/01/01 12:43:54;;;;;;;29.23;18.70;;;29.40;99.90;;;;;;4995418;28;20395;-71
2022/01/01 12:46:24;;;;;;;30.75;22.45;;;29.40;99.90;;;;;;5010694;28;20026;-72
2022/01/01 12:48:51;;;;;;;30.63;15.95;;;29.40;99.90;;;;;;5013037;28;20125;-70